createdAt,value
2019-02-25T00:02:52.666Z,102898.05
2019-02-25T00:06:58.282Z,102902.12
2019-02-25T00:11:04.860Z,102891.08
2019-02-25T00:15:19.120Z,102891.41
2019-02-25T00:19:23.110Z,102886.59
2019-02-25T00:23:31.120Z,102886.70
2019-02-25T00:27:36.386Z,102880.64
2019-02-25T00:31:41.699Z,102880.83
2019-02-25T00:35:46.993Z,102900.41
2019-02-25T00:39:52.155Z,102902.64
2019-02-25T00:43:57.293Z,102899.00
2019-02-25T00:48:02.477Z,102898.14
2019-02-25T00:52:08.908Z,102906.03
2019-02-25T00:56:20.001Z,102917.01
2019-02-25T01:00:26.658Z,102916.16
2019-02-25T01:04:31.938Z,102909.58
2019-02-25T01:08:37.311Z,102909.59
2019-02-25T01:12:43.191Z,102913.98
2019-02-25T01:16:48.386Z,102905.20
2019-02-25T01:20:54.021Z,102914.95
2019-02-25T01:24:59.264Z,102910.50
2019-02-25T01:29:04.462Z,102918.48
2019-02-25T01:33:09.722Z,102900.96
2019-02-25T01:37:15.117Z,102906.14
2019-02-25T01:41:20.248Z,102898.13
2019-02-25T01:45:25.476Z,102906.34
2019-02-25T01:49:30.881Z,102896.42
2019-02-25T01:53:36.351Z,102890.22
2019-02-25T01:57:41.492Z,102889.91
2019-02-25T02:01:46.738Z,102891.59
2019-02-25T02:05:52.302Z,102890.70
2019-02-25T02:10:00.454Z,102892.92
2019-02-25T02:14:08.334Z,102898.22
2019-02-25T02:18:18.117Z,102904.77
2019-02-25T02:22:23.538Z,102903.02
2019-02-25T02:26:29.612Z,102903.45
2019-02-25T02:30:35.825Z,102913.55
2019-02-25T02:34:41.150Z,102908.41
2019-02-25T02:38:46.346Z,102914.98
2019-02-25T02:42:53.454Z,102911.94
2019-02-25T02:47:28.959Z,102925.06
2019-02-25T02:51:34.256Z,102923.33
2019-02-25T02:55:39.853Z,102908.77
2019-02-25T02:59:45.041Z,102910.94
2019-02-25T03:03:50.377Z,102907.34
2019-02-25T03:07:55.600Z,102909.57
2019-02-25T03:12:00.908Z,102909.62
2019-02-25T03:16:06.142Z,102904.85
2019-02-25T03:20:11.815Z,102904.85
2019-02-25T03:24:18.425Z,102893.55
2019-02-25T03:28:23.933Z,102901.37
2019-02-25T03:32:30.917Z,102885.30
2019-02-25T03:36:36.036Z,102885.79
2019-02-25T03:40:41.686Z,102885.83
2019-02-25T03:44:46.966Z,102890.19
2019-02-25T03:48:52.213Z,102897.59
2019-02-25T03:52:57.693Z,102903.25
2019-02-25T03:57:03.023Z,102893.24
2019-02-25T04:01:09.349Z,102892.36
2019-02-25T04:05:15.026Z,102898.01
2019-02-25T04:09:20.342Z,102900.97
2019-02-25T04:13:26.021Z,102899.31
2019-02-25T04:17:31.373Z,102888.00
2019-02-25T04:21:37.139Z,102900.63
2019-02-25T04:25:42.517Z,102897.58
2019-02-25T04:29:48.012Z,102894.48
2019-02-25T04:33:53.252Z,102893.22
2019-02-25T04:37:59.976Z,102899.61
2019-02-25T04:42:05.149Z,102899.24
2019-02-25T04:46:10.435Z,102888.34
2019-02-25T04:50:19.138Z,102893.38
2019-02-25T04:54:24.713Z,102886.67
2019-02-25T04:58:30.057Z,102907.55
2019-02-25T05:02:35.313Z,102910.11
2019-02-25T05:06:40.973Z,102903.81
2019-02-25T05:10:46.224Z,102879.86
2019-02-25T05:14:51.514Z,102880.40
2019-02-25T05:18:58.589Z,102877.72
2019-02-25T05:23:03.960Z,102884.05
2019-02-25T05:27:09.283Z,102878.92
2019-02-25T05:31:14.557Z,102869.50
2019-02-25T05:35:23.361Z,102867.44
2019-02-25T05:39:28.686Z,102863.91
2019-02-25T05:43:33.934Z,102875.54
2019-02-25T05:47:39.180Z,102890.20
2019-02-25T05:51:44.338Z,102889.38
2019-02-25T05:55:49.662Z,102873.48
2019-02-25T05:59:54.971Z,102868.64
2019-02-25T06:04:02.484Z,102865.16
2019-02-25T06:08:07.699Z,102874.66
2019-02-25T06:12:14.714Z,102882.00
2019-02-25T06:16:19.937Z,102880.31
2019-02-25T06:20:25.218Z,102877.27
2019-02-25T06:24:35.041Z,102875.53
2019-02-25T06:28:40.523Z,102886.41
2019-02-25T06:32:45.667Z,102877.41
2019-02-25T06:36:50.750Z,102884.06
2019-02-25T06:40:55.862Z,102881.42
2019-02-25T06:45:01.442Z,102880.11
2019-02-25T06:49:06.777Z,102886.24
2019-02-25T06:54:09.334Z,102879.73
2019-02-25T06:58:11.383Z,102878.39
2019-02-25T07:02:16.491Z,102893.22
2019-02-25T07:06:30.761Z,102882.77
2019-02-25T07:10:52.520Z,102891.94
2019-02-25T07:15:19.671Z,102888.88
2019-02-25T07:19:42.507Z,102894.11
2019-02-25T07:23:53.533Z,102900.64
2019-02-25T07:28:11.513Z,102898.48
2019-02-25T07:32:34.758Z,102902.84
2019-02-25T07:36:47.772Z,102906.30
2019-02-25T07:41:23.749Z,102897.97
2019-02-25T07:45:53.742Z,102896.15
2019-02-25T07:50:11.358Z,102903.05
2019-02-25T07:54:36.910Z,102898.61
2019-02-25T07:59:06.804Z,102912.91
2019-02-25T08:03:24.322Z,102910.12
2019-02-25T08:07:48.095Z,102926.59
2019-02-25T08:12:05.968Z,102911.11
2019-02-25T08:16:33.119Z,102919.17
2019-02-25T08:20:57.533Z,102919.89
2019-02-25T08:25:27.978Z,102913.57
2019-02-25T08:29:41.810Z,102917.70
2019-02-25T08:34:08.345Z,102923.67
2019-02-25T08:38:44.913Z,102925.14
2019-02-25T08:42:51.900Z,102934.33
2019-02-25T08:47:19.645Z,102945.86
2019-02-25T08:51:24.704Z,102941.45
2019-02-25T08:55:30.044Z,102947.59
2019-02-25T08:59:35.224Z,102954.45
2019-02-25T09:03:40.376Z,102960.22
2019-02-25T09:07:45.521Z,102960.22
2019-02-25T09:11:50.622Z,102961.19
2019-02-25T09:15:55.772Z,102964.70
2019-02-25T09:20:03.697Z,102965.67
2019-02-25T09:24:08.925Z,102970.98
2019-02-25T09:28:14.410Z,102971.08
2019-02-25T09:32:19.633Z,102971.34
2019-02-25T09:36:25.681Z,102982.70
2019-02-25T09:40:31.992Z,102983.03
2019-02-25T09:44:37.988Z,102987.32
2019-02-25T09:48:44.297Z,102981.91
2019-02-25T09:52:49.393Z,102984.67
2019-02-25T09:56:54.570Z,102972.66
2019-02-25T10:00:59.749Z,102974.22
2019-02-25T10:05:05.317Z,102973.53
2019-02-25T10:09:10.585Z,102979.81
2019-02-25T10:13:15.874Z,102979.89
2019-02-25T10:17:23.686Z,102983.92
2019-02-25T10:21:28.084Z,102994.48
2019-02-25T10:25:33.259Z,103005.47
2019-02-25T10:29:38.434Z,102998.39
2019-02-25T10:33:43.675Z,102992.33
2019-02-25T10:37:48.802Z,102994.39
2019-02-25T10:41:55.467Z,102995.83
2019-02-25T10:46:01.204Z,102994.83
2019-02-25T10:50:07.467Z,102991.33
2019-02-25T10:54:12.612Z,102991.91
2019-02-25T10:58:17.820Z,102987.64
2019-02-25T11:02:23.014Z,102986.31
2019-02-25T11:06:29.079Z,102986.70
2019-02-25T11:10:37.438Z,102976.97
2019-02-25T11:14:43.417Z,102980.06
2019-02-25T11:18:50.678Z,102986.48
2019-02-25T11:22:56.063Z,102961.27
2019-02-25T11:27:03.070Z,102966.00
2019-02-25T11:31:08.357Z,102958.77
2019-02-25T11:35:14.019Z,102957.69
2019-02-25T11:39:19.289Z,102952.59
2019-02-25T11:43:24.519Z,102942.11
2019-02-25T11:47:29.644Z,102938.73
2019-02-25T11:51:34.915Z,102934.47
2019-02-25T11:55:40.542Z,102933.02
2019-02-25T11:59:45.824Z,102935.31
2019-02-25T12:03:51.058Z,102922.69
2019-02-25T12:07:56.237Z,102920.72
2019-02-25T12:12:01.489Z,102917.10
2019-02-25T12:16:06.632Z,102907.64
2019-02-25T12:20:13.776Z,102902.05
2019-02-25T12:24:18.909Z,102896.00
2019-02-25T12:28:24.138Z,102904.84
2019-02-25T12:32:29.333Z,102898.70
2019-02-25T12:36:34.544Z,102903.38
2019-02-25T12:40:40.871Z,102893.19
2019-02-25T12:44:46.340Z,102895.05
2019-02-25T12:48:51.667Z,102892.04
2019-02-25T12:52:56.788Z,102880.42
2019-02-25T12:57:01.939Z,102866.78
2019-02-25T13:01:07.121Z,102856.76
2019-02-25T13:05:14.032Z,102841.70
2019-02-25T13:09:20.790Z,102841.99
2019-02-25T13:13:25.964Z,102822.42
2019-02-25T13:17:31.216Z,102812.03
2019-02-25T13:21:38.241Z,102811.77
2019-02-25T13:25:43.445Z,102796.86
2019-02-25T13:29:49.578Z,102792.02
2019-02-25T13:33:55.873Z,102779.20
2019-02-25T13:38:02.580Z,102772.61
2019-02-25T13:42:08.203Z,102763.06
2019-02-25T13:46:13.507Z,102737.89
2019-02-25T13:50:18.995Z,102726.32
2019-02-25T13:54:24.111Z,102718.34
2019-02-25T13:58:29.615Z,102725.41
2019-02-25T14:02:34.817Z,102729.88
2019-02-25T14:06:40.065Z,102741.83
2019-02-25T14:10:46.655Z,102727.59
2019-02-25T14:14:51.750Z,102727.02
2019-02-25T14:18:56.985Z,102727.34
2019-02-25T14:23:02.218Z,102727.80
2019-02-25T14:27:07.538Z,102733.11
2019-02-25T14:31:12.880Z,102724.27
2019-02-25T14:35:18.678Z,102729.56
2019-02-25T14:39:27.932Z,102723.46
2019-02-25T14:43:37.191Z,102721.63
2019-02-25T14:47:40.062Z,102733.08
2019-02-25T14:51:46.107Z,102737.73
2019-02-25T14:55:53.160Z,102747.72
2019-02-25T14:59:58.286Z,102752.84
2019-02-25T15:04:04.342Z,102750.50
2019-02-25T15:08:11.329Z,102742.13
2019-02-25T15:12:16.500Z,102739.06
2019-02-25T15:16:21.638Z,102742.14
2019-02-25T15:20:28.794Z,102745.99
2019-02-25T15:24:35.152Z,102740.30
2019-02-25T15:28:40.392Z,102742.47
2019-02-25T15:32:54.806Z,102743.62
2019-02-25T15:36:52.564Z,102751.25
2019-02-25T15:40:58.055Z,102754.11
2019-02-25T15:45:05.441Z,102751.30
2019-02-25T15:49:12.842Z,102754.84
2019-02-25T15:53:17.555Z,102758.66
2019-02-25T15:57:24.543Z,102770.69
2019-02-25T16:01:29.517Z,102760.04
2019-02-25T16:05:36.794Z,102763.95
2019-02-25T16:09:42.373Z,102761.20
2019-02-25T16:13:47.606Z,102766.64
2019-02-25T16:17:53.201Z,102758.74
2019-02-25T16:22:00.253Z,102767.84
2019-02-25T16:26:05.767Z,102769.39
2019-02-25T16:30:12.166Z,102771.68
2019-02-25T16:34:18.469Z,102774.63
2019-02-25T16:38:27.208Z,102768.60
2019-02-25T16:42:34.642Z,102766.95
2019-02-25T16:46:41.773Z,102774.19
2019-02-25T16:50:47.440Z,102783.48
2019-02-25T16:54:53.228Z,102777.84
2019-02-25T16:59:17.546Z,102782.37
2019-02-25T17:03:20.606Z,102786.67
2019-02-25T17:07:34.447Z,102784.56
2019-02-25T17:11:40.066Z,102795.27
2019-02-25T17:15:46.464Z,102791.12
2019-02-25T17:19:54.034Z,102788.00
2019-02-25T17:24:00.636Z,102790.63
2019-02-25T17:28:08.066Z,102791.47
2019-02-25T17:32:15.042Z,102789.52
2019-02-25T17:36:21.677Z,102799.80
2019-02-25T17:40:27.437Z,102791.32
2019-02-25T17:47:58.391Z,102796.11
2019-02-25T17:48:46.205Z,102807.78
2019-02-25T17:52:51.368Z,102810.54
2019-02-25T17:56:56.520Z,102804.88
2019-02-25T18:01:03.294Z,102804.88
2019-02-25T18:05:09.921Z,102816.80
2019-02-25T18:09:16.413Z,102817.02
2019-02-25T18:13:23.691Z,102817.93
2019-02-25T18:17:30.186Z,102810.54
2019-02-25T18:21:35.418Z,102806.44
2019-02-25T18:25:42.376Z,102798.66
2019-02-25T18:29:48.243Z,102796.83
2019-02-25T18:33:55.337Z,102797.95
2019-02-25T18:38:02.477Z,102796.58
2019-02-25T18:42:09.492Z,102790.14
2019-02-25T18:46:14.616Z,102796.10
2019-02-25T18:50:21.773Z,102783.26
2019-02-25T18:54:27.449Z,102783.74
2019-02-25T18:58:33.671Z,102780.20
2019-02-25T19:02:41.830Z,102779.77
2019-02-25T19:06:47.866Z,102789.30
2019-02-25T19:10:58.410Z,102786.14
2019-02-25T19:15:07.060Z,102777.56
2019-02-25T19:19:38.160Z,102777.17
2019-02-25T19:23:44.111Z,102782.14
2019-02-25T19:27:50.113Z,102780.39
2019-02-25T19:32:00.686Z,102780.50
2019-02-25T19:36:25.639Z,102773.47
2019-02-25T19:40:29.208Z,102767.45
2019-02-25T19:44:36.530Z,102769.91
2019-02-25T19:48:42.739Z,102770.73
2019-02-25T19:52:53.866Z,102763.78
2019-02-25T20:01:45.618Z,102762.38
2019-02-25T20:05:52.121Z,102762.81
2019-02-25T20:09:58.412Z,102755.00
2019-02-25T20:14:03.589Z,102750.46
2019-02-25T20:18:09.944Z,102760.75
2019-02-25T20:22:17.932Z,102745.19
2019-02-25T20:26:24.699Z,102757.55
2019-02-25T20:30:30.548Z,102757.55
2019-02-25T20:34:46.102Z,102751.59
2019-02-25T20:39:18.982Z,102748.30
2019-02-25T20:43:28.199Z,102754.02
2019-02-25T20:47:34.533Z,102745.32
2019-02-25T20:51:39.953Z,102738.26
2019-02-25T20:55:45.147Z,102725.76
2019-02-25T20:59:51.010Z,102732.84
2019-02-25T21:03:57.497Z,102725.25
2019-02-25T21:08:02.863Z,102724.28
2019-02-25T21:12:10.311Z,102723.58
2019-02-25T21:16:30.511Z,102713.91
2019-02-25T21:20:37.946Z,102709.67
2019-02-25T21:24:43.151Z,102712.17
2019-02-25T21:28:48.711Z,102704.30
2019-02-25T21:32:56.342Z,102712.91
2019-02-25T21:37:02.922Z,102710.21
2019-02-25T21:41:09.044Z,102710.13
2019-02-25T21:45:17.996Z,102710.72
2019-02-25T21:49:27.030Z,102708.07
2019-02-25T21:53:29.950Z,102719.51
2019-02-25T21:57:35.997Z,102713.14
2019-02-25T22:01:42.014Z,102712.23
2019-02-25T22:05:49.346Z,102706.70
2019-02-25T22:09:54.099Z,102713.33
2019-02-25T22:13:59.343Z,102702.11
2019-02-25T22:18:06.244Z,102707.64
2019-02-25T22:22:11.606Z,102693.44
2019-02-25T22:26:16.867Z,102693.44
2019-02-25T22:30:22.038Z,102701.94
2019-02-25T22:34:27.498Z,102702.70
2019-02-25T22:38:32.761Z,102698.22
2019-02-25T22:42:38.038Z,102691.64
2019-02-25T22:46:43.475Z,102696.23
2019-02-25T22:50:53.456Z,102691.91
2019-02-25T22:54:56.908Z,102682.47
2019-02-25T22:59:02.783Z,102686.80
2019-02-25T23:03:11.156Z,102688.72
2019-02-25T23:07:17.684Z,102687.94
2019-02-25T23:11:24.345Z,102694.68
2019-02-25T23:15:30.445Z,102703.91
2019-02-25T23:19:37.095Z,102700.42
2019-02-25T23:23:42.485Z,102699.58
2019-02-25T23:27:47.795Z,102698.09
2019-02-25T23:31:52.987Z,102695.66
2019-02-25T23:35:59.578Z,102702.13
2019-02-25T23:40:07.355Z,102702.95
2019-02-25T23:44:13.268Z,102707.77
2019-02-25T23:48:19.249Z,102705.61
2019-02-25T23:52:25.713Z,102710.61
2019-02-25T23:56:31.802Z,102700.92
